Time;durP1;ratioP1;P1;durP2;ratioP2;P2;SDS_P1;SDS_P2;PMS_P1;PMS_P2;Temp;Humidity;BMP_temperature;BMP_pressure;BME280_temperature;BME280_humidity;BME280_pressure;Samples;Min_cycle;Max_cycle;Signal;HPM_P1;HPM_P2
2022/03/09 00:00:55;;;;;;;6.27;3.40;;;-3275.90;57.70;;;;;;6226787;28;20220;-58
2022/03/09 00:03:57;;;;;;;4.23;3.53;;;-3275.90;57.50;;;;;;6251275;28;20268;-58
2022/03/09 00:06:57;;;;;;;5.60;3.57;;;-3275.90;57.70;;;;;;6220469;28;20217;-58
2022/03/09 00:09:58;;;;;;;7.10;3.90;;;-3275.90;57.60;;;;;;6251532;28;20190;-57
2022/03/09 00:12:59;;;;;;;6.47;3.67;;;-3275.90;57.10;;;;;;6234384;28;20205;-57
2022/03/09 00:16:00;;;;;;;7.07;4.10;;;-3275.80;57.80;;;;;;6234779;28;20196;-57
2022/03/09 00:19:01;;;;;;;4.73;3.40;;;-3275.80;58.30;;;;;;6233987;28;20232;-58
2022/03/09 00:22:02;;;;;;;4.70;3.70;;;-3275.80;58.90;;;;;;6255661;28;20286;-58
2022/03/09 00:25:03;;;;;;;3.60;2.90;;;-3275.80;58.50;;;;;;6233865;28;20186;-58
2022/03/09 00:28:04;;;;;;;5.73;3.77;;;-3275.70;58.60;;;;;;6233724;28;20203;-59
2022/03/09 00:31:05;;;;;;;6.50;3.60;;;-3275.80;58.60;;;;;;6233247;28;20228;-59
2022/03/09 00:34:05;;;;;;;6.77;4.00;;;-3275.70;58.80;;;;;;6250387;28;20228;-58
2022/03/09 00:37:06;;;;;;;7.00;3.50;;;-3275.70;59.00;;;;;;6267319;28;20233;-59
2022/03/09 00:40:08;;;;;;;4.33;3.60;;;-3275.70;59.00;;;;;;6249934;28;20222;-58
2022/03/09 00:43:08;;;;;;;5.80;3.70;;;-3275.70;58.80;;;;;;6215935;28;20218;-59
2022/03/09 00:46:09;;;;;;;4.73;3.67;;;-3275.80;59.10;;;;;;6209413;28;20191;-58
2022/03/09 00:49:10;;;;;;;4.87;3.80;;;-3275.80;58.90;;;;;;6217970;28;20201;-58
2022/03/09 00:52:11;;;;;;;7.00;3.80;;;-3275.90;58.50;;;;;;6249747;28;20199;-58
2022/03/09 00:55:12;;;;;;;6.40;3.60;;;-3276.00;58.50;;;;;;6233865;28;20204;-58
2022/03/09 00:58:13;;;;;;;6.60;4.23;;;-3276.00;58.60;;;;;;6228975;28;20812;-58
2022/03/09 01:01:14;;;;;;;7.23;4.43;;;-3276.00;58.60;;;;;;6249943;28;20225;-58
2022/03/09 01:04:15;;;;;;;5.73;4.03;;;-3276.20;58.20;;;;;;6233140;28;20197;-58
2022/03/09 01:07:16;;;;;;;6.27;3.87;;;-3276.10;58.50;;;;;;6232815;28;20197;-58
2022/03/09 01:10:16;;;;;;;9.10;3.80;;;-3276.00;58.90;;;;;;6232613;28;20202;-58
2022/03/09 01:13:17;;;;;;;6.20;3.80;;;-3275.90;59.00;;;;;;6232938;28;20212;-59
2022/03/09 01:16:18;;;;;;;4.90;3.90;;;-3275.90;59.10;;;;;;6244904;28;20202;-58
2022/03/09 01:19:19;;;;;;;6.70;4.47;;;-3275.90;59.00;;;;;;6208812;28;20223;-59
2022/03/09 01:22:20;;;;;;;6.10;4.00;;;-3275.90;59.00;;;;;;6237682;28;20228;-58
2022/03/09 01:25:21;;;;;;;6.60;3.87;;;-3275.90;59.40;;;;;;6208585;28;20230;-58
2022/03/09 01:28:22;;;;;;;7.13;4.37;;;-3275.90;59.30;;;;;;6228558;28;20179;-58
2022/03/09 01:31:23;;;;;;;4.97;4.13;;;-3275.90;59.20;;;;;;6232970;28;20197;-58
2022/03/09 01:34:24;;;;;;;7.70;4.37;;;-3275.90;59.10;;;;;;6231587;28;20284;-59
2022/03/09 01:37:24;;;;;;;9.63;4.97;;;-3275.80;59.10;;;;;;6225010;28;20193;-58
2022/03/09 01:40:25;;;;;;;8.67;4.10;;;-3275.80;59.30;;;;;;6207522;28;20262;-58
2022/03/09 01:43:26;;;;;;;5.13;3.90;;;-3275.80;59.30;;;;;;6219168;28;20194;-58
2022/03/09 01:46:27;;;;;;;6.40;3.87;;;-3275.70;59.30;;;;;;6228804;28;20186;-58
2022/03/09 01:49:28;;;;;;;5.23;3.70;;;-3275.70;59.60;;;;;;6221811;28;20273;-58
2022/03/09 01:52:29;;;;;;;5.40;3.83;;;-3275.70;59.60;;;;;;6225319;28;20195;-58
2022/03/09 01:55:30;;;;;;;6.43;4.23;;;-3275.60;60.10;;;;;;6240156;28;20198;-58
2022/03/09 01:58:30;;;;;;;6.10;3.63;;;-3275.70;60.00;;;;;;6230544;28;20206;-58
2022/03/09 02:01:31;;;;;;;6.73;3.60;;;-3275.70;59.90;;;;;;6221703;28;20306;-58
2022/03/09 02:04:32;;;;;;;5.77;3.47;;;-3275.70;59.50;;;;;;6227328;28;20201;-58
2022/03/09 02:10:54;;;;;;;6.07;4.03;;;-3275.70;59.50;;;;;;6227969;28;20202;-58
2022/03/09 02:13:54;;;;;;;7.47;4.70;;;-3275.70;59.60;;;;;;6231525;28;20251;-58
2022/03/09 02:16:57;;;;;;;7.70;4.70;;;-3275.80;59.30;;;;;;6250753;28;20257;-58
2022/03/09 02:19:58;;;;;;;7.17;4.87;;;-3275.70;59.40;;;;;;6232176;28;20230;-58
2022/03/09 02:23:00;;;;;;;8.13;5.43;;;-3275.70;60.00;;;;;;6247978;28;20182;-58
2022/03/09 02:26:01;;;;;;;6.87;5.20;;;-3275.50;60.00;;;;;;6232113;28;20296;-58
2022/03/09 02:29:01;;;;;;;6.70;4.47;;;-3275.30;60.90;;;;;;6242811;28;20201;-58
2022/03/09 02:32:03;;;;;;;6.90;4.80;;;-3275.40;61.10;;;;;;6231361;28;20246;-58
2022/03/09 02:35:04;;;;;;;7.30;4.53;;;-3275.40;61.20;;;;;;6231350;28;20270;-59
2022/03/09 02:38:05;;;;;;;10.57;4.93;;;-3275.30;61.40;;;;;;6231869;28;20204;-58
2022/03/09 02:41:05;;;;;;;7.37;4.63;;;-3275.20;61.70;;;;;;6231855;28;20241;-58
2022/03/09 02:44:06;;;;;;;6.67;4.50;;;-3275.20;61.70;;;;;;6248378;28;20195;-59
2022/03/09 02:47:07;;;;;;;5.90;3.87;;;-3275.20;61.50;;;;;;6231635;28;20191;-58
2022/03/09 02:50:09;;;;;;;7.20;4.37;;;-3275.20;61.50;;;;;;6230936;28;20202;-58
2022/03/09 02:53:10;;;;;;;9.00;5.07;;;-3275.20;61.60;;;;;;6267502;28;20189;-58
2022/03/09 02:56:10;;;;;;;10.80;7.87;;;-3275.30;61.70;;;;;;6215674;28;20208;-58
2022/03/09 02:59:11;;;;;;;5.63;4.27;;;-3275.30;61.80;;;;;;6231683;28;20240;-58
2022/03/09 03:02:13;;;;;;;6.77;4.53;;;-3275.20;62.40;;;;;;6236499;28;20223;-58
2022/03/09 03:05:14;;;;;;;5.33;3.83;;;-3275.20;62.30;;;;;;6229448;28;20200;-58
2022/03/09 03:08:15;;;;;;;7.90;4.50;;;-3275.20;62.60;;;;;;6235350;28;20219;-58
2022/03/09 03:11:16;;;;;;;7.87;5.07;;;-3275.20;62.60;;;;;;6218668;28;20308;-58
2022/03/09 03:14:16;;;;;;;6.20;4.57;;;-3275.30;62.50;;;;;;6253908;28;20199;-58
2022/03/09 03:17:17;;;;;;;7.03;4.10;;;-3275.30;62.40;;;;;;6240761;28;20302;-58
2022/03/09 03:20:18;;;;;;;6.83;4.23;;;-3275.40;62.20;;;;;;6246996;28;20273;-58
2022/03/09 03:23:19;;;;;;;6.00;3.83;;;-3275.40;62.00;;;;;;6252089;28;20194;-59
2022/03/09 03:26:20;;;;;;;4.67;3.47;;;-3275.50;62.10;;;;;;6235229;28;20194;-59
2022/03/09 03:29:21;;;;;;;7.50;3.83;;;-3275.50;61.80;;;;;;6233164;28;20222;-59
2022/03/09 03:32:22;;;;;;;10.67;4.20;;;-3275.60;61.50;;;;;;6211144;28;20198;-59
2022/03/09 03:35:23;;;;;;;6.37;4.30;;;-3275.50;62.10;;;;;;6212832;28;20232;-59
2022/03/09 03:38:24;;;;;;;5.93;4.43;;;-3275.40;62.10;;;;;;6268680;28;20216;-58
2022/03/09 03:41:25;;;;;;;5.17;3.70;;;-3275.50;62.30;;;;;;6234581;28;20233;-59
2022/03/09 03:44:25;;;;;;;6.23;3.93;;;-3275.50;62.80;;;;;;6250969;28;20240;-59
2022/03/09 03:47:27;;;;;;;6.67;3.73;;;-3275.50;62.60;;;;;;6246589;28;20243;-59
2022/03/09 03:50:27;;;;;;;5.20;3.43;;;-3275.40;62.70;;;;;;6250510;28;20639;-59
2022/03/09 03:53:28;;;;;;;5.77;3.73;;;-3275.50;62.80;;;;;;6236017;28;20202;-59
2022/03/09 03:56:30;;;;;;;7.13;4.57;;;-3275.50;62.60;;;;;;6247246;28;20198;-59
2022/03/09 03:59:30;;;;;;;7.77;4.30;;;-3275.40;62.60;;;;;;6244439;28;20360;-59
2022/03/09 04:02:31;;;;;;;5.53;3.80;;;-3275.30;62.90;;;;;;6210815;28;20191;-59
2022/03/09 04:05:32;;;;;;;8.00;4.57;;;-3275.20;63.20;;;;;;6210193;28;20235;-59
2022/03/09 04:08:33;;;;;;;4.80;3.70;;;-3275.20;63.30;;;;;;6210521;28;20204;-59
2022/03/09 04:11:34;;;;;;;5.63;3.80;;;-3275.20;63.40;;;;;;6210437;28;20417;-59
2022/03/09 04:14:35;;;;;;;6.37;3.70;;;-3275.10;63.60;;;;;;6233521;28;20201;-59
2022/03/09 04:17:46;;;;;;;5.43;3.70;;;-3275.10;63.70;;;;;;6243745;28;20227;-59
2022/03/09 04:20:47;;;;;;;5.87;3.67;;;-3275.00;64.30;;;;;;6213360;28;20239;-58
2022/03/09 04:23:48;;;;;;;7.33;4.60;;;-3275.00;64.10;;;;;;6234355;28;20191;-59
2022/03/09 04:26:49;;;;;;;5.97;3.60;;;-3275.00;63.80;;;;;;6209830;28;20210;-59
2022/03/09 04:29:50;;;;;;;6.40;3.93;;;-3275.10;63.80;;;;;;6210052;28;20196;-59
2022/03/09 04:32:50;;;;;;;7.10;4.13;;;-3275.10;63.70;;;;;;6216319;28;20230;-58
2022/03/09 04:35:52;;;;;;;6.67;3.97;;;-3275.00;63.90;;;;;;6226956;28;20232;-59
2022/03/09 04:38:53;;;;;;;6.37;4.10;;;-3275.00;64.00;;;;;;6211180;28;20191;-59
2022/03/09 04:41:54;;;;;;;7.33;4.17;;;-3275.00;64.00;;;;;;6228537;28;20206;-59
2022/03/09 04:44:54;;;;;;;7.17;4.30;;;-3275.00;63.90;;;;;;6221701;28;20205;-58
2022/03/09 04:47:56;;;;;;;7.07;4.67;;;-3274.90;64.20;;;;;;6244462;28;20442;-59
2022/03/09 04:50:57;;;;;;;10.37;4.93;;;-3274.80;64.40;;;;;;6254535;28;20196;-59
2022/03/09 04:53:58;;;;;;;7.30;4.70;;;-3274.80;64.50;;;;;;6251760;28;20282;-59
2022/03/09 04:56:58;;;;;;;8.70;5.87;;;-3274.80;64.70;;;;;;6222056;28;20202;-59
2022/03/09 05:00:00;;;;;;;10.07;5.83;;;-3274.70;64.80;;;;;;6232069;28;20267;-59
2022/03/09 05:03:01;;;;;;;7.37;5.33;;;-3274.70;64.80;;;;;;6245895;28;20188;-59
2022/03/09 05:06:02;;;;;;;7.10;5.00;;;-3274.70;64.70;;;;;;6240829;28;20254;-59
2022/03/09 05:09:03;;;;;;;10.57;5.63;;;-3274.60;65.30;;;;;;6249027;28;20187;-59
2022/03/09 05:12:05;;;;;;;9.03;5.70;;;-3274.60;65.40;;;;;;6219700;28;20673;-58
2022/03/09 05:15:07;;;;;;;7.67;5.30;;;-3274.50;65.60;;;;;;6231052;28;20242;-59
2022/03/09 05:18:08;;;;;;;7.17;4.60;;;-3274.50;65.60;;;;;;6232492;28;21939;-59
2022/03/09 05:21:09;;;;;;;8.30;4.93;;;-3274.50;65.50;;;;;;6226766;28;20238;-58
2022/03/09 05:24:10;;;;;;;6.97;5.17;;;-3274.50;65.60;;;;;;6249830;28;20187;-59
2022/03/09 05:27:10;;;;;;;6.73;4.93;;;-3274.50;66.00;;;;;;6231176;28;20206;-59
2022/03/09 05:30:12;;;;;;;7.77;4.83;;;-3274.40;66.60;;;;;;6247626;28;20231;-59
2022/03/09 05:33:13;;;;;;;7.40;4.97;;;-3274.40;66.40;;;;;;6265846;28;20218;-59
2022/03/09 05:36:13;;;;;;;7.57;5.07;;;-3274.40;66.40;;;;;;6226177;28;20195;-58
2022/03/09 05:39:14;;;;;;;10.23;5.33;;;-3274.40;66.50;;;;;;6241759;28;20246;-59
2022/03/09 05:42:15;;;;;;;7.17;4.97;;;-3274.40;66.40;;;;;;6248529;28;20318;-59
2022/03/09 05:45:17;;;;;;;9.50;4.57;;;-3274.40;66.50;;;;;;6249426;28;20187;-58
2022/03/09 05:48:18;;;;;;;6.33;4.60;;;-3274.30;66.90;;;;;;6231280;28;20269;-52
2022/03/09 05:51:18;;;;;;;7.73;4.93;;;-3274.40;66.90;;;;;;6235829;28;20199;-58
2022/03/09 05:54:20;;;;;;;7.00;4.87;;;-3274.40;67.10;;;;;;6242786;28;20199;-57
2022/03/09 05:57:22;;;;;;;7.50;5.03;;;-3274.50;67.00;;;;;;6211681;28;20235;-57
2022/03/09 06:00:23;;;;;;;10.03;7.73;;;-3274.50;66.80;;;;;;6244462;28;20223;-58
2022/03/09 06:03:23;;;;;;;12.63;7.43;;;-3274.50;66.70;;;;;;6232404;28;20199;-58
2022/03/09 06:06:24;;;;;;;13.80;7.87;;;-3274.60;66.50;;;;;;6236727;28;20228;-57
2022/03/09 06:09:27;;;;;;;9.80;6.43;;;-3274.70;66.30;;;;;;6212638;28;20257;-57
2022/03/09 06:12:27;;;;;;;13.20;6.97;;;-3274.70;66.10;;;;;;6244416;28;20199;-59
2022/03/09 06:15:28;;;;;;;10.73;5.27;;;-3274.80;66.10;;;;;;6238009;28;20207;-56
2022/03/09 06:18:29;;;;;;;10.17;5.43;;;-3274.80;66.20;;;;;;6250107;28;20199;-56
2022/03/09 06:21:30;;;;;;;6.77;5.67;;;-3274.90;66.30;;;;;;6250382;28;20230;-53
2022/03/09 06:24:31;;;;;;;8.20;5.30;;;-3275.00;65.80;;;;;;6217764;28;20216;-56
2022/03/09 06:27:40;;;;;;;9.67;5.33;;;-3275.00;65.80;;;;;;6220685;28;20219;-58
2022/03/09 06:30:41;;;;;;;9.57;6.10;;;-3275.00;65.70;;;;;;6251993;28;20189;-57
2022/03/09 06:33:42;;;;;;;7.20;5.43;;;-3275.00;65.90;;;;;;6253354;28;20191;-58
2022/03/09 06:36:44;;;;;;;6.73;4.70;;;-3275.00;66.10;;;;;;6229265;28;20205;-56
2022/03/09 06:39:45;;;;;;;10.17;4.60;;;-3275.10;65.80;;;;;;6243953;28;20220;-56
2022/03/09 06:42:46;;;;;;;8.90;5.00;;;-3275.10;65.50;;;;;;6229622;28;20207;-56
2022/03/09 06:45:47;;;;;;;6.73;4.97;;;-3275.20;65.20;;;;;;6229478;28;20202;-57
2022/03/09 06:48:48;;;;;;;9.93;5.90;;;-3275.30;64.80;;;;;;6231332;28;20194;-57
2022/03/09 06:51:48;;;;;;;7.13;5.07;;;-3275.30;64.50;;;;;;6248966;28;20194;-57
2022/03/09 06:54:50;;;;;;;8.60;5.67;;;-3275.40;64.70;;;;;;6227267;28;20191;-60
2022/03/09 06:57:51;;;;;;;7.33;5.27;;;-3275.50;64.40;;;;;;6246534;28;20229;-57
2022/03/09 07:00:52;;;;;;;7.33;4.77;;;-3275.50;64.00;;;;;;6221749;28;20221;-57
2022/03/09 07:03:53;;;;;;;9.43;5.87;;;-3275.50;63.90;;;;;;6238503;28;20413;-56
2022/03/09 07:06:53;;;;;;;14.97;7.13;;;-3275.60;63.70;;;;;;6241860;28;20212;-61
2022/03/09 07:09:55;;;;;;;8.03;5.53;;;-3275.70;63.40;;;;;;6244761;28;20217;-56
2022/03/09 07:12:55;;;;;;;9.17;6.00;;;-3275.70;63.40;;;;;;6261348;28;20209;-55
2022/03/09 07:15:56;;;;;;;10.80;6.23;;;-3275.80;63.10;;;;;;6232566;28;20200;-55
2022/03/09 07:18:57;;;;;;;10.80;7.67;;;-3275.80;62.80;;;;;;6268669;28;20209;-54
2022/03/09 07:21:58;;;;;;;13.53;7.13;;;-3275.90;62.60;;;;;;6243076;28;20254;-56
2022/03/09 07:24:59;;;;;;;12.87;6.70;;;-3276.00;62.40;;;;;;6232307;28;20244;-57
2022/03/09 07:28:00;;;;;;;11.27;7.63;;;-3276.00;62.20;;;;;;6229092;28;20240;-55
2022/03/09 07:31:02;;;;;;;11.20;6.73;;;-3276.20;62.10;;;;;;6245854;28;20232;-55
2022/03/09 07:34:03;;;;;;;13.93;6.63;;;-3276.30;61.50;;;;;;6240819;28;20206;-62
2022/03/09 07:37:04;;;;;;;10.67;6.67;;;-3276.30;61.00;;;;;;6247442;28;20209;-62
2022/03/09 07:40:06;;;;;;;13.83;6.63;;;-3276.40;60.60;;;;;;6224330;28;20226;-56
2022/03/09 07:43:07;;;;;;;9.30;5.20;;;-3276.50;60.60;;;;;;6235626;28;20268;-57
2022/03/09 07:46:09;;;;;;;14.03;6.40;;;-3276.50;60.50;;;;;;6243552;28;20198;-56
2022/03/09 07:49:10;;;;;;;11.30;5.83;;;-3276.70;59.20;;;;;;6235273;28;20184;-56
2022/03/09 07:52:12;;;;;;;10.33;5.53;;;0.00;58.30;;;;;;6241257;28;20187;-55
2022/03/09 07:55:14;;;;;;;12.33;5.53;;;0.10;57.90;;;;;;6236456;28;20210;-56
2022/03/09 07:58:14;;;;;;;10.03;5.43;;;0.30;57.70;;;;;;6240955;28;20198;-55
2022/03/09 08:01:15;;;;;;;12.50;6.00;;;0.30;57.50;;;;;;6218769;28;20351;-60
2022/03/09 08:04:16;;;;;;;11.50;6.33;;;0.50;57.40;;;;;;6237392;28;20285;-57
2022/03/09 08:07:18;;;;;;;10.03;5.50;;;0.70;56.70;;;;;;6232862;28;20195;-57
2022/03/09 08:10:19;;;;;;;10.20;5.30;;;0.80;55.30;;;;;;6253814;28;20285;-54
2022/03/09 08:13:20;;;;;;;6.93;4.87;;;1.00;54.90;;;;;;6264282;28;20199;-56
2022/03/09 08:16:21;;;;;;;9.07;4.40;;;1.00;54.90;;;;;;6217393;28;20199;-54
2022/03/09 08:19:21;;;;;;;6.40;4.37;;;1.10;54.90;;;;;;6208788;28;20237;-61
2022/03/09 08:22:22;;;;;;;6.80;5.20;;;1.20;54.20;;;;;;6181454;28;1154828;-51
2022/03/09 08:25:23;;;;;;;10.53;5.53;;;1.40;53.80;;;;;;6244828;28;20194;-57
2022/03/09 08:28:24;;;;;;;10.53;5.87;;;1.60;52.80;;;;;;6238320;28;20198;-57
2022/03/09 08:31:26;;;;;;;10.27;5.47;;;1.80;52.10;;;;;;6264703;28;20229;-57
2022/03/09 08:34:26;;;;;;;8.07;5.03;;;1.90;51.90;;;;;;6248364;28;20229;-57
2022/03/09 08:37:27;;;;;;;9.73;5.63;;;2.00;51.90;;;;;;6237987;28;20199;-57
2022/03/09 08:40:28;;;;;;;8.60;6.00;;;2.30;51.50;;;;;;6236773;28;20217;-61
2022/03/09 08:43:29;;;;;;;9.40;6.57;;;2.60;50.40;;;;;;6238975;28;20267;-61
2022/03/09 08:46:31;;;;;;;13.53;6.93;;;2.70;50.10;;;;;;6232362;28;20195;-60
2022/03/09 08:49:33;;;;;;;11.97;6.70;;;2.80;48.50;;;;;;6231626;28;20199;-60
2022/03/09 08:52:34;;;;;;;12.43;7.63;;;3.00;48.20;;;;;;6238304;28;20202;-60
2022/03/09 08:55:35;;;;;;;11.73;7.33;;;3.30;47.30;;;;;;6238796;28;20190;-60
2022/03/09 08:58:37;;;;;;;13.57;8.50;;;3.40;47.40;;;;;;6246619;28;20198;-60
2022/03/09 09:01:38;;;;;;;12.33;7.50;;;3.40;47.10;;;;;;6228029;28;20267;-60
2022/03/09 09:04:39;;;;;;;10.97;6.70;;;3.60;46.30;;;;;;6215357;28;20190;-60
2022/03/09 09:07:41;;;;;;;13.27;7.20;;;3.60;46.20;;;;;;6231905;28;20197;-60
2022/03/09 09:10:41;;;;;;;8.53;6.50;;;3.80;46.30;;;;;;6236495;28;20244;-61
2022/03/09 09:13:43;;;;;;;10.83;7.37;;;4.10;46.80;;;;;;6224099;28;20202;-61
2022/03/09 09:16:44;;;;;;;11.90;6.87;;;4.20;47.10;;;;;;6238655;28;20189;-60
2022/03/09 09:19:44;;;;;;;10.53;6.47;;;4.30;45.70;;;;;;6242219;28;20222;-61
2022/03/09 09:22:46;;;;;;;15.03;6.77;;;4.30;46.10;;;;;;6226284;28;20235;-61
2022/03/09 09:25:47;;;;;;;8.13;6.00;;;4.40;46.10;;;;;;6245273;28;20216;-60
2022/03/09 09:28:48;;;;;;;11.53;6.47;;;4.60;45.50;;;;;;6242828;28;20244;-60
2022/03/09 09:31:49;;;;;;;7.03;5.60;;;4.60;45.70;;;;;;6232632;28;20194;-61
2022/03/09 09:34:50;;;;;;;7.27;4.97;;;4.60;46.10;;;;;;6258518;28;20249;-61
2022/03/09 09:37:52;;;;;;;8.80;6.10;;;4.60;45.80;;;;;;6229178;28;20194;-61
2022/03/09 09:40:55;;;;;;;9.03;5.87;;;4.90;45.00;;;;;;6216791;28;20225;-60
2022/03/09 09:43:57;;;;;;;8.70;5.67;;;5.30;45.40;;;;;;6230505;28;20201;-60
2022/03/09 09:46:57;;;;;;;10.23;5.53;;;5.40;44.30;;;;;;6232513;28;20204;-60
2022/03/09 09:49:59;;;;;;;9.07;5.30;;;5.50;44.00;;;;;;6248879;28;20193;-60
2022/03/09 09:53:10;;;;;;;5.93;5.20;;;5.50;44.60;;;;;;6258708;28;20222;-58
2022/03/09 09:56:13;;;;;;;7.23;4.83;;;5.60;44.40;;;;;;6243177;28;20186;-58
2022/03/09 09:59:14;;;;;;;9.43;5.70;;;5.70;43.80;;;;;;6232040;28;20226;-60
2022/03/09 10:02:14;;;;;;;6.90;5.47;;;6.00;42.80;;;;;;6239119;28;20201;-60
2022/03/09 10:05:18;;;;;;;10.40;5.13;;;6.10;42.40;;;;;;6246661;28;20276;-60
2022/03/09 10:08:19;;;;;;;8.77;5.03;;;6.10;42.40;;;;;;6232211;28;20190;-60
2022/03/09 10:11:20;;;;;;;7.83;5.60;;;6.30;42.40;;;;;;6228674;28;20218;-60
2022/03/09 10:14:52;;;;;;;7.07;4.60;;;6.40;42.70;;;;;;6221886;28;20202;-60
2022/03/09 10:18:10;;;;;;;6.50;4.67;;;6.60;41.80;;;;;;6244976;28;20222;-60
2022/03/09 10:21:13;;;;;;;7.63;4.17;;;6.60;42.50;;;;;;6261603;28;20242;-60
2022/03/09 10:24:14;;;;;;;9.03;4.67;;;6.80;42.10;;;;;;6221121;28;20191;-60
2022/03/09 10:27:42;;;;;;;8.37;4.83;;;7.00;40.80;;;;;;6231895;28;20727;-61
2022/03/09 10:30:43;;;;;;;6.43;4.53;;;7.30;42.40;;;;;;6229847;28;20208;-62
2022/03/09 10:33:44;;;;;;;6.37;4.30;;;7.60;40.90;;;;;;6226552;28;20194;-61
2022/03/09 10:37:04;;;;;;;6.70;4.13;;;7.50;40.10;;;;;;6227662;28;20219;-61
2022/03/09 10:40:14;;;;;;;4.83;3.80;;;7.40;40.40;;;;;;6224382;28;20265;-62
2022/03/09 10:43:16;;;;;;;5.10;3.73;;;7.40;40.40;;;;;;6272356;28;20668;-60
2022/03/09 10:46:18;;;;;;;7.20;3.87;;;7.50;40.10;;;;;;6261906;28;20192;-61
2022/03/09 10:49:23;;;;;;;5.63;3.87;;;7.60;39.70;;;;;;6233834;28;20195;-60
2022/03/09 10:52:41;;;;;;;8.10;4.77;;;8.10;39.00;;;;;;6230562;28;20253;-61
2022/03/09 10:55:42;;;;;;;5.70;4.43;;;8.40;38.30;;;;;;6239906;28;20245;-61
2022/03/09 10:58:43;;;;;;;6.67;4.33;;;8.40;37.80;;;;;;6225355;28;20191;-61
2022/03/09 11:02:04;;;;;;;3.57;3.27;;;8.70;37.50;;;;;;6237414;28;20261;-60
2022/03/09 11:05:08;;;;;;;8.03;3.97;;;8.80;36.40;;;;;;6252702;28;20249;-64
2022/03/09 11:08:09;;;;;;;5.70;3.77;;;9.10;36.40;;;;;;6241094;28;20190;-60
2022/03/09 11:11:14;;;;;;;3.93;3.53;;;9.20;35.90;;;;;;6231706;28;20191;-60
2022/03/09 11:14:18;;;;;;;5.33;3.83;;;9.20;36.60;;;;;;6224408;28;20195;-60
2022/03/09 11:17:23;;;;;;;5.17;4.43;;;9.40;35.40;;;;;;6231727;28;20281;-60
2022/03/09 11:20:24;;;;;;;5.30;3.97;;;9.40;35.80;;;;;;6248497;28;20339;-60
2022/03/09 11:23:26;;;;;;;5.27;3.80;;;9.70;35.50;;;;;;6260147;28;20197;-60
2022/03/09 11:26:29;;;;;;;5.47;3.80;;;9.50;34.80;;;;;;6230828;28;20673;-60
2022/03/09 11:29:35;;;;;;;6.60;3.70;;;9.90;35.30;;;;;;6244239;28;20195;-63
2022/03/09 11:32:36;;;;;;;6.97;4.13;;;10.00;35.80;;;;;;6248405;28;20649;-63
2022/03/09 11:35:39;;;;;;;4.83;3.50;;;10.20;35.60;;;;;;6251166;28;20288;-62
2022/03/09 11:38:40;;;;;;;5.70;3.80;;;10.10;34.00;;;;;;6235637;28;20301;-61
2022/03/09 11:41:41;;;;;;;8.03;4.00;;;10.20;34.60;;;;;;6243360;28;20238;-67
2022/03/09 11:44:43;;;;;;;3.90;3.37;;;10.70;34.80;;;;;;6225470;28;20202;-63
2022/03/09 11:48:07;;;;;;;4.90;3.70;;;10.90;32.40;;;;;;6227100;28;20278;-61
2022/03/09 11:51:10;;;;;;;5.13;3.77;;;10.80;32.10;;;;;;6244054;28;20198;-61
2022/03/09 11:54:11;;;;;;;4.40;3.90;;;11.10;31.80;;;;;;6215282;28;20223;-62
2022/03/09 11:57:14;;;;;;;6.53;4.03;;;11.20;33.40;;;;;;6220947;28;20201;-63
2022/03/09 12:00:19;;;;;;;4.40;4.00;;;11.20;31.50;;;;;;6263431;28;20221;-65
2022/03/09 12:03:40;;;;;;;4.53;3.53;;;11.10;32.60;;;;;;6248246;28;20248;-64
2022/03/09 12:06:43;;;;;;;5.70;3.80;;;11.60;32.30;;;;;;6237618;28;20187;-65
2022/03/09 12:10:09;;;;;;;5.40;3.97;;;11.70;30.60;;;;;;6239048;28;20203;-65
2022/03/09 12:13:20;;;;;;;4.43;3.97;;;11.60;31.10;;;;;;6229658;28;20191;-65
2022/03/09 12:16:27;;;;;;;8.07;4.30;;;11.70;31.10;;;;;;6261622;28;20719;-64
2022/03/09 12:19:28;;;;;;;5.10;3.60;;;11.80;30.80;;;;;;6260500;28;20253;-64
2022/03/09 12:23:01;;;;;;;4.53;3.90;;;11.90;32.00;;;;;;6228279;28;20238;-64
2022/03/09 12:26:02;;;;;;;5.43;4.63;;;12.30;30.40;;;;;;6232787;28;20196;-65
2022/03/09 12:29:03;;;;;;;4.70;3.70;;;12.50;30.30;;;;;;6238730;28;20306;-64
2022/03/09 12:32:13;;;;;;;5.60;4.03;;;13.00;29.50;;;;;;6233399;28;20191;-67
2022/03/09 12:35:14;;;;;;;6.47;4.03;;;14.10;29.20;;;;;;6249820;28;20294;-65
2022/03/09 12:38:15;;;;;;;5.37;4.00;;;16.20;25.90;;;;;;6242920;28;20202;-66
2022/03/09 12:41:39;;;;;;;4.40;4.00;;;19.00;22.90;;;;;;6232061;28;20214;-66
2022/03/09 12:44:40;;;;;;;4.27;3.63;;;21.70;20.30;;;;;;6224561;28;20221;-66
2022/03/09 12:47:43;;;;;;;4.20;3.53;;;24.40;17.70;;;;;;6230877;28;20195;-67
2022/03/09 12:50:45;;;;;;;4.83;4.37;;;24.80;17.40;;;;;;6230004;28;20199;-69
2022/03/09 12:53:46;;;;;;;4.43;3.57;;;27.30;15.20;;;;;;6245040;28;20186;-64
2022/03/09 12:56:49;;;;;;;4.40;3.70;;;28.00;14.80;;;;;;6239843;28;20225;-64
2022/03/09 13:00:10;;;;;;;4.10;3.70;;;28.40;14.30;;;;;;6239911;28;20222;-64
2022/03/09 13:03:11;;;;;;;5.90;4.40;;;30.10;13.80;;;;;;6258398;28;20238;-64
2022/03/09 13:06:27;;;;;;;5.03;3.67;;;29.40;13.50;;;;;;6228691;28;20241;-65
2022/03/09 13:09:30;;;;;;;4.87;3.93;;;30.80;13.00;;;;;;6253471;28;20196;-64
2022/03/09 13:12:31;;;;;;;4.97;4.33;;;30.40;12.70;;;;;;6231969;28;20199;-65
2022/03/09 13:15:39;;;;;;;5.00;4.50;;;28.30;13.90;;;;;;6238963;28;20201;-65
2022/03/09 13:18:40;;;;;;;4.43;3.90;;;27.40;15.00;;;;;;6248921;28;20186;-64
2022/03/09 13:21:41;;;;;;;4.60;3.73;;;27.40;14.30;;;;;;6215247;28;20301;-64
2022/03/09 13:24:42;;;;;;;4.83;3.50;;;26.90;14.90;;;;;;6208511;28;20194;-64
2022/03/09 13:27:43;;;;;;;4.63;3.60;;;27.60;14.80;;;;;;6224024;28;20269;-63
2022/03/09 13:30:52;;;;;;;4.47;4.07;;;27.30;14.80;;;;;;6246486;28;20202;-64
2022/03/09 13:34:11;;;;;;;5.23;3.80;;;27.20;14.80;;;;;;6235121;28;20195;-63
2022/03/09 13:37:18;;;;;;;4.37;3.90;;;26.70;14.90;;;;;;6241303;28;20203;-63
2022/03/09 13:40:18;;;;;;;5.43;3.90;;;25.80;15.60;;;;;;6266193;28;20275;-62
2022/03/09 13:43:24;;;;;;;4.27;3.80;;;28.20;15.00;;;;;;6244169;28;20191;-63
2022/03/09 13:46:25;;;;;;;4.50;4.00;;;29.20;14.20;;;;;;6262405;28;20229;-63
2022/03/09 13:49:26;;;;;;;4.40;4.00;;;30.80;12.60;;;;;;6232854;28;20194;-63
2022/03/09 13:52:31;;;;;;;4.07;3.70;;;30.90;12.60;;;;;;6243577;28;20231;-64
2022/03/09 13:55:39;;;;;;;3.83;3.40;;;30.40;12.90;;;;;;6241604;28;20192;-64
2022/03/09 13:58:41;;;;;;;4.00;3.60;;;29.70;12.90;;;;;;6246100;28;20191;-63
2022/03/09 14:01:41;;;;;;;3.93;3.53;;;30.50;13.10;;;;;;6231075;28;20218;-62
2022/03/09 14:04:46;;;;;;;3.77;3.33;;;30.60;13.10;;;;;;6248245;28;20205;-64
2022/03/09 14:07:47;;;;;;;5.53;3.80;;;28.10;14.00;;;;;;6231166;28;20195;-65
2022/03/09 14:10:50;;;;;;;4.00;3.60;;;26.10;15.30;;;;;;6243744;28;20195;-63
2022/03/09 14:14:03;;;;;;;4.33;3.67;;;23.50;16.70;;;;;;6229362;28;20203;-63
2022/03/09 14:17:04;;;;;;;3.80;3.27;;;20.70;19.20;;;;;;6223506;28;20203;-63
2022/03/09 14:20:07;;;;;;;5.87;3.93;;;20.10;20.00;;;;;;6231057;28;20246;-61
2022/03/09 14:23:12;;;;;;;5.03;3.97;;;18.60;21.60;;;;;;6224048;28;20206;-61
2022/03/09 14:26:13;;;;;;;4.40;3.57;;;17.50;22.50;;;;;;6222537;28;20187;-61
2022/03/09 14:29:15;;;;;;;6.27;4.83;;;16.90;23.40;;;;;;6224057;28;20195;-61
2022/03/09 14:32:16;;;;;;;6.77;4.40;;;16.20;24.10;;;;;;6248029;28;20195;-60
2022/03/09 14:35:16;;;;;;;4.43;3.83;;;15.60;24.60;;;;;;6239676;28;20194;-61
2022/03/09 14:38:17;;;;;;;4.57;3.77;;;15.20;25.20;;;;;;6247110;28;20200;-60
2022/03/09 14:41:19;;;;;;;4.67;3.77;;;14.70;25.90;;;;;;6233270;28;20254;-60
2022/03/09 14:44:20;;;;;;;5.20;3.70;;;14.30;26.80;;;;;;6237618;28;20345;-60
2022/03/09 14:47:20;;;;;;;4.00;3.50;;;14.20;27.10;;;;;;6263477;28;20190;-62
2022/03/09 14:50:21;;;;;;;6.47;3.60;;;14.00;26.90;;;;;;6227792;28;20200;-60
2022/03/09 14:53:28;;;;;;;4.13;3.37;;;13.80;27.30;;;;;;6279812;28;20186;-60
2022/03/09 14:56:30;;;;;;;5.97;3.80;;;13.70;27.50;;;;;;6235890;28;20229;-60
2022/03/09 14:59:32;;;;;;;4.30;3.90;;;13.30;28.40;;;;;;6248150;28;20196;-60
2022/03/09 15:02:33;;;;;;;5.37;3.83;;;13.30;28.10;;;;;;6205020;28;20282;-60
2022/03/09 15:05:33;;;;;;;5.83;3.90;;;13.20;28.20;;;;;;6247081;28;20205;-62
2022/03/09 15:08:36;;;;;;;7.47;3.83;;;13.30;28.40;;;;;;6261854;28;20218;-61
2022/03/09 15:11:37;;;;;;;4.37;3.97;;;13.60;28.10;;;;;;6252482;28;20198;-61
2022/03/09 15:14:38;;;;;;;6.10;4.13;;;13.60;28.00;;;;;;6251494;28;20194;-61
2022/03/09 15:17:39;;;;;;;5.40;3.47;;;13.90;27.50;;;;;;6268765;28;20197;-61
2022/03/09 15:20:40;;;;;;;5.30;3.27;;;14.30;27.20;;;;;;6195190;28;20242;-61
2022/03/09 15:23:41;;;;;;;5.77;3.47;;;16.30;25.10;;;;;;6244249;28;20218;-61
2022/03/09 15:26:42;;;;;;;7.60;4.23;;;19.00;22.50;;;;;;6211450;28;20260;-61
2022/03/09 15:29:43;;;;;;;4.10;3.70;;;21.40;20.20;;;;;;6220741;28;20278;-61
2022/03/09 15:32:44;;;;;;;4.23;3.53;;;22.20;19.50;;;;;;6252387;28;20289;-60
2022/03/09 15:35:45;;;;;;;5.37;3.73;;;22.60;19.40;;;;;;6235170;28;20206;-61